Time;durP1;ratioP1;P1;durP2;ratioP2;P2;SDS_P1;SDS_P2;PMS_P1;PMS_P2;Temp;Humidity;BMP_temperature;BMP_pressure;BME280_temperature;BME280_humidity;BME280_pressure;Samples;Min_cycle;Max_cycle;Signal;HPM_P1;HPM_P2
2023/10/06 00:01:42;;;;;;;9.30;5.10;;;19.40;52.30;;;;;;5055682;28;20199;-79
2023/10/06 00:04:12;;;;;;;6.90;4.38;;;19.40;52.30;;;;;;5057585;28;20179;-79
2023/10/06 00:06:41;;;;;;;8.55;4.97;;;19.40;52.50;;;;;;5055681;28;20207;-79
2023/10/06 00:09:19;;;;;;;8.40;4.88;;;19.40;52.40;;;;;;5055360;28;20245;-79
2023/10/06 00:11:50;;;;;;;8.52;4.70;;;19.30;52.30;;;;;;5055591;28;20188;-79
2023/10/06 00:14:38;;;;;;;8.10;4.60;;;19.30;52.40;;;;;;5054769;28;20188;-79
2023/10/06 00:17:09;;;;;;;7.35;4.40;;;19.30;52.60;;;;;;5055477;28;20192;-79
2023/10/06 00:19:39;;;;;;;7.00;4.35;;;19.30;52.70;;;;;;5055070;28;20273;-79
2023/10/06 00:22:18;;;;;;;8.32;4.80;;;19.30;52.60;;;;;;5054946;28;20655;-79
2023/10/06 00:24:50;;;;;;;10.25;4.90;;;19.30;52.60;;;;;;5054920;28;20606;-79
2023/10/06 00:27:23;;;;;;;8.43;4.47;;;19.30;52.50;;;;;;5054864;28;20704;-79
2023/10/06 00:29:54;;;;;;;8.18;4.63;;;19.30;52.80;;;;;;5054611;28;20588;-79
2023/10/06 00:32:25;;;;;;;6.50;4.60;;;19.30;52.60;;;;;;5055140;28;20199;-79
2023/10/06 00:34:55;;;;;;;5.88;4.25;;;19.30;52.70;;;;;;5054699;28;20192;-79
2023/10/06 00:37:23;;;;;;;7.47;4.43;;;19.30;52.70;;;;;;5054305;28;20248;-79
2023/10/06 00:39:54;;;;;;;6.93;4.80;;;19.30;52.60;;;;;;5054595;28;20215;-78
2023/10/06 00:42:22;;;;;;;7.55;4.47;;;19.30;52.60;;;;;;5055041;28;20186;-78
2023/10/06 00:44:50;;;;;;;8.50;4.60;;;19.20;52.60;;;;;;5038535;28;20267;-78
2023/10/06 00:47:17;;;;;;;7.43;4.50;;;19.20;52.50;;;;;;5057667;28;20192;-78
2023/10/06 00:49:44;;;;;;;5.90;3.95;;;19.20;52.50;;;;;;5054421;28;20230;-78
2023/10/06 00:52:12;;;;;;;7.05;4.43;;;19.20;52.70;;;;;;5054302;28;20666;-78
2023/10/06 00:54:39;;;;;;;6.65;4.50;;;19.20;52.60;;;;;;5037581;28;20567;-78
2023/10/06 00:57:10;;;;;;;6.05;3.75;;;19.20;52.50;;;;;;5053835;28;20642;-78
2023/10/06 00:59:37;;;;;;;7.18;4.10;;;19.20;52.60;;;;;;5037522;28;20306;-78
2023/10/06 01:02:08;;;;;;;5.55;4.07;;;19.20;52.50;;;;;;5053737;28;20275;-78
2023/10/06 01:04:38;;;;;;;7.13;4.30;;;19.10;52.50;;;;;;5054674;28;20552;-78
2023/10/06 01:07:08;;;;;;;5.88;4.20;;;19.20;52.60;;;;;;5054265;28;20238;-78
2023/10/06 01:09:35;;;;;;;6.20;3.92;;;19.10;52.50;;;;;;5053722;28;20223;-78
2023/10/06 01:12:05;;;;;;;7.63;4.40;;;19.10;52.50;;;;;;5054003;28;20199;-78
2023/10/06 01:14:35;;;;;;;5.72;4.30;;;19.10;52.50;;;;;;5053468;28;20196;-78
2023/10/06 01:17:14;;;;;;;5.60;3.85;;;19.10;52.30;;;;;;5053606;28;20273;-78
2023/10/06 01:19:48;;;;;;;7.50;4.50;;;19.10;52.50;;;;;;5054524;28;20211;-78
2023/10/06 01:22:24;;;;;;;6.18;4.18;;;19.10;52.40;;;;;;5021377;28;20278;-78
2023/10/06 01:24:54;;;;;;;5.88;4.07;;;19.10;52.50;;;;;;5053563;28;20199;-78
2023/10/06 01:27:25;;;;;;;6.07;4.20;;;19.10;52.60;;;;;;5053510;28;20202;-78
2023/10/06 01:30:17;;;;;;;7.03;4.25;;;19.10;52.50;;;;;;5053502;28;20227;-78
2023/10/06 01:32:41;;;;;;;5.47;3.72;;;19.10;52.50;;;;;;5053931;28;20203;-78
2023/10/06 01:35:12;;;;;;;6.18;4.03;;;19.10;52.60;;;;;;5053927;28;20227;-78
2023/10/06 01:37:41;;;;;;;6.60;4.30;;;19.00;52.30;;;;;;5038366;28;20222;-78
2023/10/06 01:40:15;;;;;;;5.57;3.85;;;19.00;52.40;;;;;;5053133;28;20215;-78
2023/10/06 01:42:45;;;;;;;9.50;4.78;;;19.00;52.40;;;;;;5053332;28;20563;-78
2023/10/06 01:45:15;;;;;;;6.60;4.35;;;19.00;52.30;;;;;;5053333;28;20249;-78
2023/10/06 01:47:42;;;;;;;6.60;3.92;;;19.00;52.40;;;;;;5036455;28;20201;-78
2023/10/06 01:50:10;;;;;;;6.68;3.90;;;19.00;52.30;;;;;;5053096;28;20227;-78
2023/10/06 01:52:39;;;;;;;6.63;4.15;;;19.00;52.30;;;;;;5053225;28;20211;-78
2023/10/06 01:55:21;;;;;;;7.00;4.10;;;19.00;52.20;;;;;;5054940;28;20222;-78
2023/10/06 01:57:49;;;;;;;5.78;4.00;;;18.90;52.20;;;;;;5037427;28;20234;-78
2023/10/06 02:00:25;;;;;;;5.72;3.95;;;19.00;52.40;;;;;;5036601;28;20203;-78
2023/10/06 02:02:52;;;;;;;6.40;3.92;;;18.90;52.40;;;;;;5053144;28;20242;-78
2023/10/06 02:05:20;;;;;;;6.85;4.13;;;19.00;52.40;;;;;;5053066;28;20210;-78
2023/10/06 02:07:47;;;;;;;5.80;3.97;;;18.90;52.30;;;;;;5036527;28;20225;-78
2023/10/06 02:10:18;;;;;;;7.10;4.20;;;18.90;52.50;;;;;;5053417;28;20566;-78
2023/10/06 02:12:46;;;;;;;4.75;3.78;;;18.90;52.40;;;;;;5053209;28;20568;-78
2023/10/06 02:15:13;;;;;;;6.32;4.28;;;18.90;52.30;;;;;;5053824;28;20199;-78
2023/10/06 02:17:40;;;;;;;6.47;4.00;;;18.90;52.30;;;;;;5053164;28;20191;-78
2023/10/06 02:20:13;;;;;;;5.72;4.15;;;18.90;53.10;;;;;;5053333;28;20219;-78
2023/10/06 02:22:41;;;;;;;6.38;4.20;;;18.90;52.50;;;;;;5052877;28;20566;-78
2023/10/06 02:25:15;;;;;;;4.60;3.75;;;18.90;52.40;;;;;;5036615;28;20564;-78
2023/10/06 02:27:47;;;;;;;5.57;4.22;;;18.90;52.50;;;;;;5038584;28;20201;-78
2023/10/06 02:30:15;;;;;;;6.25;4.05;;;18.80;52.40;;;;;;5053239;28;20212;-78
2023/10/06 02:32:44;;;;;;;5.78;3.85;;;18.80;52.40;;;;;;5052858;28;20282;-78
2023/10/06 02:35:12;;;;;;;6.00;3.80;;;18.80;52.50;;;;;;5052261;28;20372;-78
2023/10/06 02:37:39;;;;;;;5.38;3.72;;;18.80;52.30;;;;;;5056067;28;20209;-78
2023/10/06 02:40:12;;;;;;;5.72;4.07;;;18.80;52.30;;;;;;5057666;28;20693;-78
2023/10/06 02:42:45;;;;;;;5.13;3.75;;;18.80;52.40;;;;;;5040650;28;20286;-78
2023/10/06 02:45:20;;;;;;;6.60;3.83;;;18.80;52.50;;;;;;5056812;28;20196;-78
2023/10/06 02:47:47;;;;;;;4.93;3.90;;;18.80;52.40;;;;;;5056632;28;20195;-78
2023/10/06 02:50:20;;;;;;;5.78;4.10;;;18.80;52.30;;;;;;5056159;28;20698;-78
2023/10/06 02:52:47;;;;;;;5.65;3.75;;;18.80;52.50;;;;;;5056992;28;20210;-78
2023/10/06 02:55:19;;;;;;;5.63;3.70;;;18.80;52.50;;;;;;5056127;28;20269;-78
2023/10/06 02:57:51;;;;;;;5.40;3.72;;;18.80;52.50;;;;;;5057508;28;20195;-78
2023/10/06 03:00:32;;;;;;;4.53;3.72;;;18.70;52.30;;;;;;5056271;28;20215;-78
2023/10/06 03:03:03;;;;;;;6.03;3.92;;;18.70;52.30;;;;;;5057068;28;20203;-78
2023/10/06 03:05:32;;;;;;;6.47;3.55;;;18.70;52.20;;;;;;5057030;28;20198;-78
2023/10/06 03:08:03;;;;;;;5.32;3.75;;;18.70;52.20;;;;;;5057062;28;20237;-78
2023/10/06 03:10:40;;;;;;;6.20;3.92;;;18.70;52.30;;;;;;5055807;28;20281;-78
2023/10/06 03:13:10;;;;;;;5.68;3.90;;;18.70;52.30;;;;;;5056442;28;20209;-78
2023/10/06 03:15:45;;;;;;;5.18;3.60;;;18.70;52.30;;;;;;5055933;28;20198;-78
2023/10/06 03:18:14;;;;;;;5.63;3.42;;;18.70;52.20;;;;;;5056435;28;20199;-78
2023/10/06 03:20:46;;;;;;;5.22;3.88;;;18.70;52.60;;;;;;5056233;28;20223;-78
2023/10/06 03:23:24;;;;;;;4.70;3.60;;;18.70;52.90;;;;;;5056056;28;20195;-78
2023/10/06 03:25:54;;;;;;;5.18;3.90;;;18.70;53.10;;;;;;5056226;28;20203;-78
2023/10/06 03:28:24;;;;;;;5.32;3.85;;;18.70;52.90;;;;;;5055417;28;20282;-78
2023/10/06 03:30:54;;;;;;;4.40;3.53;;;18.80;53.10;;;;;;5039282;28;20298;-78
2023/10/06 03:33:21;;;;;;;6.45;3.70;;;18.80;53.10;;;;;;5055616;28;20586;-78
2023/10/06 03:35:49;;;;;;;4.90;3.55;;;18.90;52.90;;;;;;5038946;28;20572;-78
2023/10/06 03:38:31;;;;;;;5.53;3.80;;;18.90;52.90;;;;;;5055564;28;20210;-78
2023/10/06 03:41:18;;;;;;;4.55;3.78;;;18.90;52.90;;;;;;5055465;28;20265;-78
2023/10/06 03:43:50;;;;;;;4.65;3.53;;;19.00;52.70;;;;;;5055339;28;20187;-78
2023/10/06 03:46:19;;;;;;;5.88;3.88;;;19.00;52.50;;;;;;5055372;28;20279;-78
2023/10/06 03:48:48;;;;;;;5.63;3.90;;;19.00;52.50;;;;;;5055200;28;20191;-78
2023/10/06 03:51:17;;;;;;;4.10;3.47;;;19.00;52.30;;;;;;5090011;22;20203;-75
2023/10/06 03:53:44;;;;;;;5.22;3.85;;;19.00;52.30;;;;;;5053462;28;20222;-75
2023/10/06 03:56:12;;;;;;;5.82;3.70;;;19.00;52.30;;;;;;5054854;28;20630;-75
2023/10/06 03:58:40;;;;;;;3.85;3.28;;;19.00;52.20;;;;;;5055409;28;20214;-75
2023/10/06 04:01:09;;;;;;;6.10;3.80;;;19.00;52.00;;;;;;5055617;28;20234;-75
2023/10/06 04:03:38;;;;;;;4.35;3.60;;;19.00;52.10;;;;;;5038447;28;20195;-75
2023/10/06 04:06:05;;;;;;;5.05;3.88;;;19.00;52.00;;;;;;5055813;28;20555;-75
2023/10/06 04:08:32;;;;;;;4.65;3.40;;;18.90;52.20;;;;;;5054872;28;20294;-75
2023/10/06 04:10:59;;;;;;;4.45;3.65;;;18.90;51.70;;;;;;5054433;28;20219;-75
2023/10/06 04:13:26;;;;;;;5.20;3.85;;;18.90;51.50;;;;;;5054368;28;20200;-75
2023/10/06 04:15:53;;;;;;;4.75;3.45;;;18.90;51.40;;;;;;5054557;28;20227;-75
2023/10/06 04:18:22;;;;;;;4.50;3.40;;;18.90;51.40;;;;;;5056644;28;20199;-75
2023/10/06 04:20:51;;;;;;;5.22;3.67;;;18.90;51.40;;;;;;5056159;28;20226;-75
2023/10/06 04:23:18;;;;;;;4.07;3.38;;;18.90;51.40;;;;;;5054881;28;20254;-75
2023/10/06 04:25:46;;;;;;;3.55;3.17;;;18.90;51.30;;;;;;5055600;28;20585;-75
2023/10/06 04:28:14;;;;;;;4.75;3.70;;;18.90;51.30;;;;;;5054846;28;20203;-75
2023/10/06 04:30:43;;;;;;;4.40;3.60;;;18.90;51.30;;;;;;5054582;28;20226;-75
2023/10/06 04:33:10;;;;;;;3.78;3.40;;;18.90;51.30;;;;;;5054636;28;20234;-75
2023/10/06 04:35:40;;;;;;;4.00;3.60;;;18.90;51.20;;;;;;5054268;28;20268;-76
2023/10/06 04:38:10;;;;;;;4.53;3.17;;;18.90;51.20;;;;;;5056072;28;20187;-76
2023/10/06 04:40:37;;;;;;;4.97;3.63;;;18.90;51.20;;;;;;5054605;28;20215;-76
2023/10/06 04:43:04;;;;;;;4.68;3.50;;;18.90;51.30;;;;;;5055540;28;20210;-76
2023/10/06 04:45:31;;;;;;;5.50;3.67;;;18.90;51.30;;;;;;5054731;28;20265;-76
2023/10/06 04:48:00;;;;;;;5.22;3.38;;;18.90;51.40;;;;;;5054793;28;20620;-76
2023/10/06 04:50:28;;;;;;;4.95;3.60;;;18.90;51.40;;;;;;5053961;28;20301;-78
2023/10/06 04:52:55;;;;;;;4.80;3.45;;;18.90;51.60;;;;;;5054603;28;20203;-77
2023/10/06 04:55:24;;;;;;;3.95;3.45;;;18.80;51.60;;;;;;5053779;28;20670;-77
2023/10/06 04:57:51;;;;;;;3.65;3.10;;;18.80;51.70;;;;;;5055465;28;20192;-78
2023/10/06 05:00:20;;;;;;;4.53;3.28;;;18.80;51.60;;;;;;5054358;28;20681;-78
2023/10/06 05:02:48;;;;;;;3.88;3.22;;;18.80;51.60;;;;;;5053664;28;20302;-78
2023/10/06 05:05:19;;;;;;;4.38;3.30;;;18.80;51.90;;;;;;5054403;28;20203;-78
2023/10/06 05:07:46;;;;;;;3.47;3.00;;;18.80;51.80;;;;;;5053639;28;20194;-77
2023/10/06 05:10:13;;;;;;;4.70;3.45;;;18.70;51.50;;;;;;5053364;28;20223;-77
2023/10/06 05:12:42;;;;;;;5.28;3.63;;;18.70;51.90;;;;;;5053246;28;20681;-77
2023/10/06 05:15:23;;;;;;;5.68;3.42;;;18.70;52.50;;;;;;5053715;28;20198;-78
2023/10/06 05:17:55;;;;;;;8.32;3.83;;;18.70;52.90;;;;;;5053370;28;20191;-78
2023/10/06 05:20:23;;;;;;;4.15;3.53;;;18.80;53.10;;;;;;5053026;28;20224;-77
2023/10/06 05:22:50;;;;;;;4.93;3.50;;;18.70;52.60;;;;;;5052790;28;20195;-77
2023/10/06 05:25:19;;;;;;;5.50;3.30;;;18.70;53.60;;;;;;5053064;28;20286;-78
2023/10/06 05:27:50;;;;;;;5.47;3.00;;;18.70;53.40;;;;;;5053371;28;20207;-77
2023/10/06 05:30:17;;;;;;;4.60;3.50;;;18.70;53.50;;;;;;5053037;28;20228;-77
2023/10/06 05:32:44;;;;;;;4.32;3.50;;;18.70;53.40;;;;;;5052943;28;20223;-77
2023/10/06 05:35:13;;;;;;;4.20;3.20;;;18.70;53.10;;;;;;5052834;28;20274;-77
2023/10/06 05:37:42;;;;;;;5.32;3.45;;;18.70;53.30;;;;;;5036739;28;20223;-75
2023/10/06 05:40:13;;;;;;;4.57;3.08;;;18.70;53.50;;;;;;5053028;28;20223;-75
2023/10/06 05:42:41;;;;;;;5.82;3.30;;;18.70;53.80;;;;;;5052660;28;20195;-74
2023/10/06 05:45:15;;;;;;;5.20;3.47;;;18.70;53.10;;;;;;5052686;28;20618;-74
2023/10/06 05:47:45;;;;;;;3.42;3.13;;;18.70;52.90;;;;;;5052406;28;20669;-74
2023/10/06 05:50:12;;;;;;;5.97;3.20;;;18.70;52.90;;;;;;5052541;28;20296;-74
2023/10/06 05:52:40;;;;;;;4.35;3.28;;;18.70;53.00;;;;;;5052432;28;20655;-74
2023/10/06 05:55:09;;;;;;;5.80;3.38;;;18.70;53.10;;;;;;5052294;28;20249;-74
2023/10/06 05:57:39;;;;;;;4.68;3.13;;;18.70;52.80;;;;;;5052562;28;20227;-74
2023/10/06 06:00:18;;;;;;;4.72;3.65;;;18.70;52.90;;;;;;5052543;28;20219;-74
2023/10/06 06:02:47;;;;;;;4.38;2.90;;;18.70;52.70;;;;;;5035851;28;20566;-74
2023/10/06 06:05:14;;;;;;;4.35;3.45;;;18.70;53.00;;;;;;5052355;28;20289;-74
2023/10/06 06:07:42;;;;;;;3.35;3.00;;;18.70;53.00;;;;;;5052816;28;20191;-74
2023/10/06 06:10:13;;;;;;;3.50;3.20;;;18.70;52.90;;;;;;5052015;28;20223;-74
2023/10/06 06:12:40;;;;;;;4.20;3.28;;;18.70;53.10;;;;;;5057035;28;20207;-74
2023/10/06 06:15:11;;;;;;;4.07;3.60;;;18.70;53.10;;;;;;5056457;28;20203;-74
2023/10/06 06:17:40;;;;;;;5.13;3.53;;;18.80;53.10;;;;;;5056390;28;20202;-74
2023/10/06 06:20:14;;;;;;;6.10;3.20;;;18.80;53.10;;;;;;5056298;28;20215;-74
2023/10/06 06:22:43;;;;;;;3.90;3.22;;;18.80;53.30;;;;;;5056353;28;20199;-74
2023/10/06 06:25:10;;;;;;;4.93;3.30;;;18.80;52.90;;;;;;5056212;28;20230;-74
2023/10/06 06:27:37;;;;;;;3.97;3.13;;;18.80;52.90;;;;;;5056293;28;20202;-74
2023/10/06 06:30:05;;;;;;;4.35;3.22;;;18.80;53.00;;;;;;5056118;28;20277;-74
2023/10/06 06:32:35;;;;;;;3.65;3.15;;;18.80;53.00;;;;;;5056150;28;20215;-74
2023/10/06 06:35:02;;;;;;;4.72;3.20;;;18.80;53.00;;;;;;5056209;28;20295;-74
2023/10/06 06:37:29;;;;;;;3.42;3.00;;;18.80;53.30;;;;;;5056439;28;20204;-74
2023/10/06 06:39:56;;;;;;;3.15;2.80;;;18.80;53.10;;;;;;5055981;28;20226;-74
2023/10/06 06:42:23;;;;;;;4.43;3.00;;;18.80;52.90;;;;;;5056496;28;20570;-74
2023/10/06 06:44:51;;;;;;;3.95;2.90;;;18.90;52.80;;;;;;5056720;28;20200;-74
2023/10/06 06:47:18;;;;;;;3.67;3.00;;;18.90;52.80;;;;;;5039515;28;20650;-74
2023/10/06 06:49:48;;;;;;;3.75;3.10;;;18.90;52.80;;;;;;5055889;28;20219;-75
2023/10/06 06:52:15;;;;;;;4.75;3.13;;;18.90;52.70;;;;;;5055888;28;20681;-75
2023/10/06 06:54:46;;;;;;;3.38;2.95;;;18.90;52.70;;;;;;5055745;28;20199;-74
2023/10/06 06:57:16;;;;;;;3.15;2.75;;;18.90;52.70;;;;;;5055884;28;20277;-74
2023/10/06 06:59:44;;;;;;;5.07;3.10;;;18.90;52.80;;;;;;5055730;28;20269;-74
2023/10/06 07:02:12;;;;;;;3.85;2.95;;;18.90;52.70;;;;;;5055792;28;20202;-74
2023/10/06 07:04:39;;;;;;;3.38;2.88;;;19.00;52.70;;;;;;5055701;28;20203;-74
2023/10/06 07:07:07;;;;;;;4.05;3.35;;;19.00;52.70;;;;;;5058061;28;20191;-74
2023/10/06 07:09:34;;;;;;;4.20;3.00;;;19.00;53.00;;;;;;5055911;28;20632;-74
2023/10/06 07:12:02;;;;;;;3.60;2.88;;;19.00;52.60;;;;;;5055819;28;20215;-74
2023/10/06 07:14:30;;;;;;;3.72;2.90;;;19.00;52.70;;;;;;5056125;28;20196;-74
2023/10/06 07:16:57;;;;;;;4.40;3.00;;;19.00;52.50;;;;;;5055522;28;20204;-74
2023/10/06 07:19:24;;;;;;;3.25;2.80;;;19.10;52.70;;;;;;5055438;28;20223;-74
2023/10/06 07:21:53;;;;;;;2.85;2.55;;;19.10;52.70;;;;;;5056335;28;20188;-74
2023/10/06 07:24:21;;;;;;;4.80;3.10;;;19.10;52.50;;;;;;5055562;28;20196;-74
2023/10/06 07:26:50;;;;;;;3.63;2.97;;;19.10;52.60;;;;;;5055465;28;20199;-74
2023/10/06 07:29:17;;;;;;;4.03;3.00;;;19.20;52.70;;;;;;5055244;28;20250;-74
2023/10/06 07:31:44;;;;;;;3.38;2.85;;;19.30;52.80;;;;;;5055166;28;20216;-74
2023/10/06 07:34:11;;;;;;;3.72;2.63;;;19.50;53.30;;;;;;5056875;28;20238;-74
2023/10/06 07:36:38;;;;;;;3.45;2.78;;;19.60;52.20;;;;;;5055382;28;20195;-74
2023/10/06 07:39:08;;;;;;;3.03;2.72;;;19.70;52.00;;;;;;5055770;28;20197;-77
2023/10/06 07:41:37;;;;;;;4.35;3.00;;;19.80;51.70;;;;;;5056070;28;20227;-77
2023/10/06 07:44:06;;;;;;;4.72;2.83;;;19.80;51.60;;;;;;5055156;28;20199;-77
2023/10/06 07:46:33;;;;;;;3.00;2.70;;;19.80;51.50;;;;;;5039356;28;20234;-76
2023/10/06 07:49:01;;;;;;;3.15;2.70;;;19.90;51.60;;;;;;5055217;28;20294;-76
2023/10/06 07:51:28;;;;;;;2.92;2.55;;;19.90;51.60;;;;;;5054917;28;20205;-76
2023/10/06 07:53:55;;;;;;;4.18;2.90;;;20.00;51.50;;;;;;5054860;28;20635;-75
2023/10/06 07:56:22;;;;;;;2.80;2.60;;;20.20;51.30;;;;;;5055792;28;20649;-75
2023/10/06 07:58:52;;;;;;;3.10;2.78;;;20.30;51.00;;;;;;5055625;28;20192;-75
2023/10/06 08:01:20;;;;;;;4.15;2.97;;;20.60;50.70;;;;;;5054864;28;20199;-74
2023/10/06 08:03:46;;;;;;;3.88;2.67;;;20.70;50.70;;;;;;5056081;28;20187;-74
2023/10/06 08:06:14;;;;;;;3.17;2.67;;;21.00;50.50;;;;;;5054741;28;20210;-74
2023/10/06 08:08:41;;;;;;;4.32;2.80;;;21.20;50.40;;;;;;5054451;28;20196;-74
2023/10/06 08:11:09;;;;;;;4.15;2.90;;;21.30;50.20;;;;;;5054294;28;20226;-74
2023/10/06 08:13:36;;;;;;;3.60;2.83;;;21.50;49.90;;;;;;5054688;28;20226;-74
2023/10/06 08:16:06;;;;;;;4.70;3.22;;;21.60;49.80;;;;;;5054251;28;20242;-74
2023/10/06 08:18:33;;;;;;;3.42;3.00;;;21.70;49.60;;;;;;5055283;28;20195;-74
2023/10/06 08:21:01;;;;;;;5.03;2.97;;;21.80;49.60;;;;;;5037957;28;20281;-74
2023/10/06 08:23:29;;;;;;;4.20;2.72;;;21.90;49.50;;;;;;5054615;28;20286;-74
2023/10/06 08:25:57;;;;;;;3.83;2.53;;;22.00;49.60;;;;;;5054407;28;20204;-74
2023/10/06 08:28:24;;;;;;;3.58;2.80;;;22.10;49.40;;;;;;5054556;28;20230;-74
2023/10/06 08:30:51;;;;;;;3.25;2.67;;;22.20;49.50;;;;;;5054343;28;20219;-74
2023/10/06 08:33:20;;;;;;;2.78;2.50;;;22.30;48.90;;;;;;5053515;28;20216;-74
2023/10/06 08:35:47;;;;;;;3.85;2.58;;;22.40;48.80;;;;;;5053962;28;20210;-74
2023/10/06 08:38:14;;;;;;;3.40;2.60;;;22.50;49.00;;;;;;5055341;28;20194;-74
2023/10/06 08:40:43;;;;;;;3.55;2.58;;;22.60;48.90;;;;;;5054289;28;20219;-74
2023/10/06 08:43:10;;;;;;;2.67;2.38;;;22.70;48.70;;;;;;5054095;28;20192;-74
2023/10/06 08:45:41;;;;;;;3.38;2.53;;;22.70;48.50;;;;;;5053898;28;20227;-75
2023/10/06 08:48:10;;;;;;;4.03;2.83;;;22.80;48.10;;;;;;5054561;28;20277;-75
2023/10/06 08:50:38;;;;;;;3.65;2.80;;;22.90;48.10;;;;;;5053560;28;20234;-75
2023/10/06 08:53:09;;;;;;;3.60;2.78;;;22.90;48.00;;;;;;5053994;28;20223;-74
2023/10/06 08:55:37;;;;;;;4.32;2.90;;;23.00;47.80;;;;;;5054160;28;20218;-76
2023/10/06 08:58:04;;;;;;;2.92;2.50;;;23.00;47.60;;;;;;5053745;28;20206;-78
2023/10/06 09:00:32;;;;;;;3.17;2.30;;;23.10;47.50;;;;;;5054161;28;20218;-78
2023/10/06 09:03:07;;;;;;;2.83;2.38;;;23.20;47.40;;;;;;5054050;28;20195;-77
2023/10/06 09:05:35;;;;;;;3.70;2.40;;;23.20;47.30;;;;;;5039121;28;20656;-77
2023/10/06 09:08:05;;;;;;;2.80;2.30;;;23.20;47.10;;;;;;5056491;28;20200;-77
2023/10/06 09:10:32;;;;;;;2.88;2.25;;;23.30;47.10;;;;;;5053832;28;20242;-77
2023/10/06 09:13:04;;;;;;;3.90;2.65;;;23.30;47.00;;;;;;5054080;28;20226;-76
2023/10/06 09:15:31;;;;;;;4.13;2.63;;;23.40;47.00;;;;;;5053790;28;20196;-76
2023/10/06 09:17:58;;;;;;;3.95;2.40;;;23.40;46.90;;;;;;5054145;28;20199;-77
2023/10/06 09:20:32;;;;;;;3.75;2.33;;;23.40;46.80;;;;;;5053434;28;20218;-76
2023/10/06 09:23:00;;;;;;;2.78;2.47;;;23.50;46.80;;;;;;5053752;28;20245;-76
2023/10/06 09:25:31;;;;;;;2.72;2.10;;;23.50;46.80;;;;;;5053300;28;20199;-76
2023/10/06 09:28:02;;;;;;;4.72;2.45;;;23.50;46.80;;;;;;5053144;28;20298;-75
2023/10/06 09:30:30;;;;;;;2.63;2.22;;;23.50;46.80;;;;;;5052953;28;20215;-75
2023/10/06 09:33:04;;;;;;;2.92;2.28;;;23.50;46.90;;;;;;5053014;28;20227;-77
2023/10/06 09:35:32;;;;;;;5.00;2.33;;;23.50;47.00;;;;;;5052961;28;20294;-76
2023/10/06 09:38:09;;;;;;;2.42;2.08;;;23.50;47.00;;;;;;5053522;28;20302;-76
2023/10/06 09:40:43;;;;;;;4.45;2.70;;;23.50;47.10;;;;;;5054167;28;20214;-76
2023/10/06 09:43:12;;;;;;;3.65;2.40;;;23.50;47.20;;;;;;5053766;28;20226;-75
2023/10/06 09:45:40;;;;;;;2.50;2.10;;;23.50;47.20;;;;;;5053689;28;20196;-74
2023/10/06 09:48:08;;;;;;;2.38;2.05;;;23.50;47.20;;;;;;5053594;28;20222;-76
2023/10/06 09:50:37;;;;;;;3.85;2.35;;;23.50;47.20;;;;;;5054195;28;20219;-77
2023/10/06 09:53:04;;;;;;;2.88;2.20;;;23.60;47.20;;;;;;5053055;28;20219;-77
2023/10/06 09:55:31;;;;;;;2.72;2.40;;;23.60;47.20;;;;;;5053480;28;20199;-76
2023/10/06 09:58:00;;;;;;;4.95;2.15;;;23.60;47.20;;;;;;5053609;28;20317;-77
2023/10/06 10:00:29;;;;;;;3.17;2.50;;;23.60;47.70;;;;;;5053080;28;20578;-77
2023/10/06 10:02:57;;;;;;;2.38;2.17;;;23.60;47.20;;;;;;5053046;28;20291;-75
2023/10/06 10:05:24;;;;;;;2.75;2.40;;;23.60;47.30;;;;;;5053850;28;20215;-77
2023/10/06 10:07:53;;;;;;;3.85;2.13;;;23.60;47.30;;;;;;5052692;28;20202;-76
2023/10/06 10:10:22;;;;;;;3.40;2.70;;;23.60;47.40;;;;;;5052622;28;20215;-76
2023/10/06 10:13:19;;;;;;;4.05;2.63;;;23.60;47.40;;;;;;5036032;28;20305;-77
2023/10/06 10:15:54;;;;;;;2.95;2.40;;;23.60;47.40;;;;;;5052476;28;20321;-77
2023/10/06 10:18:24;;;;;;;4.50;2.50;;;23.50;47.50;;;;;;5053457;28;20211;-77
2023/10/06 10:20:51;;;;;;;2.97;2.30;;;23.60;47.50;;;;;;5052391;28;20318;-77
2023/10/06 10:23:18;;;;;;;3.33;2.50;;;23.50;47.50;;;;;;5052309;28;20237;-77
2023/10/06 10:25:45;;;;;;;3.03;2.25;;;23.50;47.60;;;;;;5052298;28;20568;-77
2023/10/06 10:28:14;;;;;;;2.95;2.20;;;23.50;47.60;;;;;;5052064;28;20226;-77
2023/10/06 10:30:57;;;;;;;3.53;2.50;;;23.50;47.70;;;;;;5052331;28;20243;-77
2023/10/06 10:33:25;;;;;;;2.58;2.38;;;23.40;47.70;;;;;;5052144;28;20222;-77
2023/10/06 10:36:21;;;;;;;2.80;2.50;;;23.40;47.70;;;;;;5052735;28;20290;-77
2023/10/06 10:38:58;;;;;;;3.97;2.50;;;23.40;47.80;;;;;;5035727;28;20209;-77
2023/10/06 10:41:27;;;;;;;2.30;2.10;;;23.40;47.90;;;;;;5035618;28;20290;-77
2023/10/06 10:43:56;;;;;;;2.47;2.08;;;23.30;47.80;;;;;;5052079;28;20195;-77
2023/10/06 10:46:42;;;;;;;2.65;2.30;;;23.30;47.90;;;;;;5051878;28;20199;-79
2023/10/06 10:49:11;;;;;;;2.72;2.17;;;23.40;48.20;;;;;;5053436;28;20223;-78
2023/10/06 10:51:51;;;;;;;2.58;2.35;;;23.30;48.10;;;;;;5052112;28;20726;-78
2023/10/06 10:54:21;;;;;;;3.35;2.30;;;23.20;48.20;;;;;;5052038;28;20325;-77
2023/10/06 10:56:51;;;;;;;3.15;2.10;;;23.30;48.40;;;;;;5052101;28;20234;-77
2023/10/06 10:59:18;;;;;;;3.08;2.30;;;23.30;48.40;;;;;;5055991;28;20690;-77
2023/10/06 11:01:51;;;;;;;3.00;2.25;;;23.30;48.40;;;;;;5055600;28;20203;-79
2023/10/06 11:04:35;;;;;;;3.25;2.42;;;23.30;48.40;;;;;;5057014;28;20191;-78
2023/10/06 11:07:10;;;;;;;3.55;2.38;;;23.30;48.30;;;;;;5055671;28;20183;-78
2023/10/06 11:09:41;;;;;;;2.60;2.35;;;23.30;48.20;;;;;;5055414;28;20288;-79
2023/10/06 11:12:20;;;;;;;2.42;2.17;;;23.40;48.20;;;;;;5056976;28;20190;-79
2023/10/06 11:14:49;;;;;;;3.60;2.10;;;23.40;48.20;;;;;;5055519;28;20253;-78
2023/10/06 11:17:20;;;;;;;2.88;2.28;;;23.40;48.10;;;;;;5055516;28;20203;-77
2023/10/06 11:19:47;;;;;;;2.90;2.15;;;23.40;48.10;;;;;;5055446;28;20652;-77
2023/10/06 11:22:19;;;;;;;2.63;2.30;;;23.40;48.10;;;;;;5055454;28;20256;-76
2023/10/06 11:24:46;;;;;;;3.33;2.70;;;23.40;48.10;;;;;;5057047;28;20179;-76
2023/10/06 11:27:17;;;;;;;2.65;2.30;;;23.40;48.10;;;;;;5055557;28;20203;-76
2023/10/06 11:29:45;;;;;;;2.72;2.25;;;23.40;48.20;;;;;;5056043;28;20219;-77
2023/10/06 11:32:12;;;;;;;2.30;2.10;;;23.40;48.20;;;;;;5055441;28;20231;-78
2023/10/06 11:34:43;;;;;;;3.78;2.50;;;23.40;48.10;;;;;;5038444;28;20340;-77
2023/10/06 11:37:10;;;;;;;3.35;2.33;;;23.50;48.20;;;;;;5055585;28;20196;-77
2023/10/06 11:39:37;;;;;;;2.28;2.00;;;23.40;48.30;;;;;;5059401;28;20242;-78
2023/10/06 11:42:35;;;;;;;2.25;2.05;;;23.50;48.10;;;;;;5055451;28;20218;-78
2023/10/06 11:45:06;;;;;;;2.60;2.20;;;23.50;48.20;;;;;;5055668;28;20211;-77
2023/10/06 11:47:42;;;;;;;2.65;2.30;;;23.50;48.20;;;;;;5057648;28;20191;-78
2023/10/06 11:50:22;;;;;;;3.15;2.00;;;23.50;48.30;;;;;;5051871;28;20284;-78
2023/10/06 11:52:50;;;;;;;2.55;2.33;;;23.50;48.40;;;;;;5038900;28;20299;-77
2023/10/06 11:55:31;;;;;;;2.53;2.33;;;23.50;48.50;;;;;;5055013;28;20195;-78
2023/10/06 11:58:00;;;;;;;3.45;2.40;;;23.50;48.40;;;;;;5056315;28;20197;-78
2023/10/06 12:00:38;;;;;;;2.25;2.05;;;23.50;48.50;;;;;;5055651;28;20222;-78
2023/10/06 12:03:06;;;;;;;2.90;2.38;;;23.50;48.50;;;;;;5055141;28;20199;-78
2023/10/06 12:05:35;;;;;;;3.50;2.47;;;23.50;48.60;;;;;;5055764;28;20642;-78
2023/10/06 12:08:04;;;;;;;2.58;1.98;;;23.50;48.60;;;;;;5055075;28;20211;-78
2023/10/06 12:10:32;;;;;;;2.35;2.15;;;23.50;48.60;;;;;;5057798;28;20219;-80
2023/10/06 12:12:59;;;;;;;3.00;2.35;;;23.40;48.50;;;;;;5055138;28;20195;-78
2023/10/06 12:15:29;;;;;;;2.70;2.30;;;23.50;48.60;;;;;;5054545;28;20569;-78
2023/10/06 12:17:56;;;;;;;2.50;2.30;;;23.50;48.60;;;;;;5055311;28;20286;-80
2023/10/06 12:20:24;;;;;;;2.95;2.10;;;23.50;48.70;;;;;;5054846;28;20219;-79
2023/10/06 12:22:53;;;;;;;2.80;2.33;;;23.50;48.70;;;;;;5038817;28;20719;-78
2023/10/06 12:25:23;;;;;;;2.53;2.33;;;23.40;48.70;;;;;;5054875;28;20204;-79
2023/10/06 12:27:50;;;;;;;2.60;2.40;;;23.40;48.70;;;;;;5054775;28;20336;-80
2023/10/06 12:30:18;;;;;;;2.95;2.33;;;23.40;48.80;;;;;;5054667;28;20242;-80
2023/10/06 12:32:47;;;;;;;2.83;2.28;;;23.40;48.80;;;;;;5055119;28;20199;-79
2023/10/06 12:35:18;;;;;;;2.90;2.15;;;23.40;48.90;;;;;;5055105;28;20226;-80
2023/10/06 12:37:45;;;;;;;2.83;2.15;;;23.40;48.90;;;;;;5055368;28;20665;-79
2023/10/06 12:40:15;;;;;;;2.60;2.40;;;23.40;48.90;;;;;;5055729;28;20219;-79
2023/10/06 12:42:42;;;;;;;2.60;2.25;;;23.40;49.00;;;;;;5055469;28;20236;-78
2023/10/06 12:45:12;;;;;;;2.92;2.30;;;23.40;48.90;;;;;;5054686;28;20192;-79
2023/10/06 12:47:40;;;;;;;2.85;2.20;;;23.40;49.00;;;;;;5054440;28;20619;-79
2023/10/06 12:50:08;;;;;;;3.20;2.30;;;23.30;48.90;;;;;;5054372;28;20739;-79
2023/10/06 12:52:36;;;;;;;2.63;2.20;;;23.40;49.10;;;;;;5053743;28;20211;-79
2023/10/06 12:55:10;;;;;;;3.00;2.35;;;23.30;49.00;;;;;;5053637;28;20288;-78
2023/10/06 12:57:38;;;;;;;2.80;2.10;;;23.30;49.10;;;;;;5053877;28;20199;-79
2023/10/06 13:00:07;;;;;;;2.78;2.20;;;23.30;49.20;;;;;;5037354;28;20215;-78
2023/10/06 13:02:35;;;;;;;2.90;2.50;;;23.30;49.40;;;;;;5053616;28;20191;-76